Kensington, Minnesota
Current Conditions -  °F | °C
As of 5:53 PM on Monday 22 Dec 2014 (Local Time) from KAXN Reporting Station
Haze Haze  
Wind Chill: -4°   Ceiling: 500
Heat Index:   Visibility: 4mi
Dew Point:   Wind: 12mph
Humidity: 92%   Direction: 100°E
Pressure: 29.56"   Gusts: NA
Location:  45.78°N, 95.7°W
Report Text: KAXN 222353Z AUTO 10010KT 4SM BR OVC005 01/00 A2956 RMK AO2 SNE00 SLP026 P0000 60002 T00110000 10022 20006 52014
Loading
Personal Weather Stations






























Interactive Weather Map New forecast layout! Learn more

10-Day Weather Forecast

Advertisements
Track Severe Weather on mobile